Map

Track Data

SID SEASON NUMBER BASIN SUBBASIN NAME ISO_TIME NATURE LAT LON WMO_WIND WMO_PRES WMO_AGENCY TRACK_TYPE DIST2LAND LANDFALL IFLAG USA_AGENCY USA_ATCF_ID USA_LAT USA_LON USA_RECORD USA_STATUS USA_WIND USA_PRES USA_SSHS USA_R34_NE USA_R34_SE USA_R34_SW USA_R34_NW USA_R50_NE USA_R50_SE USA_R50_SW USA_R50_NW USA_R64_NE USA_R64_SE USA_R64_SW USA_R64_NW USA_POCI USA_ROCI USA_RMW USA_EYE TOKYO_LAT TOKYO_LON TOKYO_GRADE TOKYO_WIND TOKYO_PRES TOKYO_R50_DIR TOKYO_R50_LONG TOKYO_R50_SHORT TOKYO_R30_DIR TOKYO_R30_LONG TOKYO_R30_SHORT TOKYO_LAND CMA_LAT CMA_LON CMA_CAT CMA_WIND CMA_PRES HKO_LAT HKO_LON HKO_CAT HKO_WIND HKO_PRES NEWDELHI_LAT NEWDELHI_LON NEWDELHI_GRADE NEWDELHI_WIND NEWDELHI_PRES NEWDELHI_CI NEWDELHI_DP NEWDELHI_POCI REUNION_LAT REUNION_LON REUNION_TYPE REUNION_WIND REUNION_PRES REUNION_TNUM REUNION_CI REUNION_RMW REUNION_R34_NE REUNION_R34_SE REUNION_R34_SW REUNION_R34_NW REUNION_R50_NE REUNION_R50_SE REUNION_R50_SW REUNION_R50_NW REUNION_R64_NE REUNION_R64_SE REUNION_R64_SW REUNION_R64_NW BOM_LAT BOM_LON BOM_TYPE BOM_WIND BOM_PRES BOM_TNUM BOM_CI BOM_RMW BOM_R34_NE BOM_R34_SE BOM_R34_SW BOM_R34_NW BOM_R50_NE BOM_R50_SE BOM_R50_SW BOM_R50_NW BOM_R64_NE BOM_R64_SE BOM_R64_SW BOM_R64_NW BOM_ROCI BOM_POCI BOM_EYE BOM_POS_METHOD BOM_PRES_METHOD NADI_LAT NADI_LON NADI_CAT NADI_WIND NADI_PRES WELLINGTON_LAT WELLINGTON_LON WELLINGTON_WIND WELLINGTON_PRES DS824_LAT DS824_LON DS824_STAGE DS824_WIND DS824_PRES TD9636_LAT TD9636_LON TD9636_STAGE TD9636_WIND TD9636_PRES TD9635_LAT TD9635_LON TD9635_WIND TD9635_PRES TD9635_ROCI NEUMANN_LAT NEUMANN_LON NEUMANN_CLASS NEUMANN_WIND NEUMANN_PRES MLC_LAT MLC_LON MLC_CLASS MLC_WIND MLC_PRES USA_GUST BOM_GUST BOM_GUST_PER REUNION_GUST REUNION_GUST_PER USA_SEAHGT USA_SEARAD_NE USA_SEARAD_SE USA_SEARAD_SW USA_SEARAD_NW STORM_SPEED STORM_DIR
1970209N33284 1970 74 NA NA NOT_NAMED 1970-07-27 12:00:00 TS 33.0000 -76.5000 20 atcf main 171 164 O_____________ atcf AL031970 33.0000 -76.5000 TD 20 -1 6 29
1970209N33284 1970 74 NA NA NOT_NAMED 1970-07-27 15:00:00 TS 33.2501 -76.3378 main 157 136 P_____________ AL031970 33.2501 -76.3378 TD 22 -1 6 27
1970209N33284 1970 74 NA NA NOT_NAMED 1970-07-27 18:00:00 TS 33.5000 -76.2000 25 atcf main 136 117 O_____________ atcf AL031970 33.5000 -76.2000 TD 25 -1 5 22
1970209N33284 1970 74 NA NA NOT_NAMED 1970-07-27 21:00:00 TS 33.7499 -76.0998 main 117 90 P_____________ AL031970 33.7499 -76.0998 TD 25 -1 5 19
1970209N33284 1970 74 NA NA NOT_NAMED 1970-07-28 00:00:00 TS 34.0000 -76.0000 25 atcf main 90 78 O_____________ atcf AL031970 34.0000 -76.0000 TD 25 -1 5 22
1970209N33284 1970 74 NA NA NOT_NAMED 1970-07-28 03:00:00 TS 34.2500 -75.8500 main 70 70 P_____________ AL031970 34.2500 -75.8500 TD 25 -1 6 26
1970209N33284 1970 74 NA NA NOT_NAMED 1970-07-28 06:00:00 TS 34.5000 -75.7000 25 atcf main 70 55 O_____________ atcf AL031970 34.5000 -75.7000 TD 25 -1 6 17
1970209N33284 1970 74 NA NA NOT_NAMED 1970-07-28 09:00:00 TS 34.8021 -75.6525 main 55 55 P_____________ AL031970 34.8473 -75.6305 TD 25 -1 5 18
1970209N33284 1970 74 NA NA NOT_NAMED 1970-07-28 12:00:00 TS 35.0000 -75.5000 25 atcf main 69 69 O_____________ atcf AL031970 35.0000 -75.5000 TD 25 -1 5 74
1970209N33284 1970 74 NA NA NOT_NAMED 1970-07-28 15:00:00 TS 34.9453 -75.0593 main 95 95 P_____________ AL031970 34.6377 -75.1784 TD 25 -1 8 113
1970209N33284 1970 74 NA NA NOT_NAMED 1970-07-28 18:00:00 TS 34.6800 -74.5600 25 hurdat_atl main 141 141 O_____________ hurdat_atl AL031970 34.2000 -74.8000 TD 25 -1 8 118
1970209N33284 1970 74 NA NA NOT_NAMED 1970-07-28 21:00:00 TS 34.5607 -74.1826 main 175 175 P_____________ AL031970 34.1394 -74.5382 TD 25 -1 7 107
1970209N33284 1970 74 NA NA NOT_NAMED 1970-07-29 00:00:00 TS 34.4857 -73.8000 25 hurdat_atl main 211 211 O_____________ hurdat_atl AL031970 34.2000 -74.2000 TD 25 -1 7 101
1970209N33284 1970 74 NA NA NOT_NAMED 1970-07-29 03:00:00 TS 34.4285 -73.3414 main 253 253 P_____________ AL031970 34.2071 -73.6827 TD 25 -1 9 96
1970209N33284 1970 74 NA NA NOT_NAMED 1970-07-29 06:00:00 TS 34.4000 -72.7500 25 hurdat_atl main 298 290 O_____________ hurdat_atl AL031970 34.2000 -73.0000 TD 25 -1 10 93
1970209N33284 1970 74 NA NA NOT_NAMED 1970-07-29 09:00:00 TS 34.3750 -72.1583 main 337 337 P_____________ AL031970 34.1644 -72.2176 TD 27 -1 11 95
1970209N33284 1970 74 NA NA NOT_NAMED 1970-07-29 12:00:00 TS 34.3000 -71.4000 30 1013 hurdat_atl main 408 408 O_____________ hurdat_atl AL031970 34.1000 -71.3000 TD 30 1013 -1 15 99
1970209N33284 1970 74 NA NA NOT_NAMED 1970-07-29 15:00:00 TS 34.1342 -70.3634 main 500 500 P_____________ AL031970 34.0221 -70.2879 TD 30 -1 19 102
1970209N33284 1970 74 NA NA NOT_NAMED 1970-07-29 18:00:00 TS 33.9000 -69.2000 30 hurdat_atl main 611 611 O_____________ hurdat_atl AL031970 33.9000 -69.2000 TD 30 -1 19 105
1970209N33284 1970 74 NA NA NOT_NAMED 1970-07-29 21:00:00 TS 33.6429 -68.0968 main 717 717 P_____________ AL031970 33.7371 -68.0931 TD 30 -1 19 107
1970209N33284 1970 74 NA NA NOT_NAMED 1970-07-30 00:00:00 TS 33.3500 -67.0000 30 hurdat_atl main 820 824 O_____________ hurdat_atl AL031970 33.5000 -67.0000 TD 30 -1 19 108
1970209N33284 1970 74 NA NA NOT_NAMED 1970-07-30 03:00:00 TS 33.0283 -65.8952 main 932 932 P_____________ AL031970 33.1648 -65.9395 TD 30 -1 19 110
1970209N33284 1970 74 NA NA NOT_NAMED 1970-07-30 06:00:00 TS 32.7000 -64.8500 30 hurdat_atl main 1039 1039 O_____________ hurdat_atl AL031970 32.8000 -65.0000 TD 30 -1 18 113
1970209N33284 1970 74 NA NA NOT_NAMED 1970-07-30 09:00:00 TS 32.3247 -63.8815 main 1134 1134 P_____________ AL031970 32.4464 -64.2477 TD 30 -1 16 112
1970209N33284 1970 74 NA NA NOT_NAMED 1970-07-30 12:00:00 TS 32.1000 -63.0500 30 hurdat_atl main 1221 1221 O_____________ hurdat_atl AL031970 32.2000 -63.6000 TD 30 -1 13 96
1970209N33284 1970 74 NA NA NOT_NAMED 1970-07-30 15:00:00 TS 32.1841 -62.3773 main 1253 1253 P_____________ AL031970 32.1247 -62.9354 TD 30 -1 11 72
1970209N33284 1970 74 NA NA NOT_NAMED 1970-07-30 18:00:00 TS 32.4500 -61.8000 30 1009 hurdat_atl main 1254 1249 O_____________ hurdat_atl AL031970 32.2000 -62.3000 TD 30 1009 -1 11 61
1970209N33284 1970 74 NA NA NOT_NAMED 1970-07-30 21:00:00 TS 32.7347 -61.2101 main 1254 1232 P_____________ AL031970 32.3698 -61.6779 TD 30 1009 -1 11 58
1970209N33284 1970 74 NA NA NOT_NAMED 1970-07-31 00:00:00 TS 33.0500 -60.6500 30 1010 hurdat_atl main 1227 1218 O_____________ hurdat_atl AL031970 32.6000 -61.1000 TD 30 1010 -1 11 58
1970209N33284 1970 74 NA NA NOT_NAMED 1970-07-31 03:00:00 TS 33.3135 -60.1057 main 1221 1203 P_____________ AL031970 32.7773 -60.5620 TD 30 -1 10 58
1970209N33284 1970 74 NA NA NOT_NAMED 1970-07-31 06:00:00 TS 33.6000 -59.6000 30 hurdat_atl main 1207 1191 O_____________ hurdat_atl AL031970 33.0000 -60.1000 TD 30 -1 10 54
1970209N33284 1970 74 NA NA NOT_NAMED 1970-07-31 09:00:00 TS 33.9226 -59.1011 main 1195 1166 P_____________ AL031970 33.2823 -59.7121 TD 30 -1 11 45
1970209N33284 1970 74 NA NA NOT_NAMED 1970-07-31 12:00:00 TS 34.3500 -58.7000 30 hurdat_atl main 1161 1120 O_____________ hurdat_atl AL031970 33.7000 -59.4000 TD 30 -1 11 28
1970209N33284 1970 74 NA NA NOT_NAMED 1970-07-31 15:00:00 TS 34.9260 -58.4581 main 1120 1062 P_____________ AL031970 34.2900 -59.1200 TD 30 -1 13 15
1970209N33284 1970 74 NA NA NOT_NAMED 1970-07-31 18:00:00 TS 35.6000 -58.3000 30 hurdat_atl main 1062 1016 O_____________ hurdat_atl AL031970 35.0000 -58.9000 TD 30 -1 14 12
1970209N33284 1970 74 NA NA NOT_NAMED 1970-07-31 21:00:00 TS 36.2850 -58.1172 main 1007 945 P_____________ AL031970 35.7349 -58.7271 TD 30 -1 14 11
1970209N33284 1970 74 NA NA NOT_NAMED 1970-08-01 00:00:00 TS 37.0000 -57.9500 30 hurdat_atl main 949 878 O_____________ hurdat_atl AL031970 36.5000 -58.6000 TD 30 -1 15 10
1970209N33284 1970 74 NA NA NOT_NAMED 1970-08-01 03:00:00 TS 37.7325 -57.7960 main 878 806 P_____________ AL031970 37.2500 -58.4921 TD 30 -1 15 9
1970209N33284 1970 74 NA NA NOT_NAMED 1970-08-01 06:00:00 TS 38.4500 -57.6500 30 1008 hurdat_atl main 799 750 O_____________ hurdat_atl AL031970 38.0000 -58.4000 TD 30 1008 -1 13 10
1970209N33284 1970 74 NA NA NOT_NAMED 1970-08-01 09:00:00 TS 39.0587 -57.5029 main 739 682 P_____________ AL031970 38.7125 -58.2996 TD 30 1009 -1 13 10
1970209N33284 1970 74 NA NA NOT_NAMED 1970-08-01 12:00:00 TS 39.7500 -57.3500 30 1010 hurdat_atl main 675 601 O_____________ hurdat_atl AL031970 39.5000 -58.2000 TD 30 1010 -1 16 9
1970209N33284 1970 74 NA NA NOT_NAMED 1970-08-01 15:00:00 TS 40.6764 -57.1816 main 591 509 P_____________ AL031970 40.4500 -58.1007 TD 30 1010 -1 20 8
1970209N33284 1970 74 NA NA NOT_NAMED 1970-08-01 18:00:00 TS 41.7500 -57.0000 30 1010 hurdat_atl main 501 O_____________ hurdat_atl AL031970 41.5000 -58.0000 TD 30 1010 -1 22 7

About IBTrACS Database

This database is a web-friendly format of International Best Track Archive for Climate Stewardship (IBTrACS), a global best track data archive curated by NOAA dating back to 1842.

Updated: 2022-09-26